createdAt,value
2023-04-23T00:01:42.665Z,100847.44
2023-04-23T00:04:09.463Z,100836.88
2023-04-23T00:06:36.433Z,100842.16
2023-04-23T00:09:04.078Z,100838.75
2023-04-23T00:11:30.814Z,100835.03
2023-04-23T00:13:57.536Z,100834.63
2023-04-23T00:16:24.757Z,100827.06
2023-04-23T00:18:51.393Z,100826.31
2023-04-23T00:21:17.898Z,100824.81
2023-04-23T00:23:44.335Z,100825.97
2023-04-23T00:26:10.954Z,100817.69
2023-04-23T00:28:37.368Z,100820.69
2023-04-23T00:31:03.847Z,100815.81
2023-04-23T00:33:30.563Z,100819.19
2023-04-23T00:35:57.027Z,100815.06
2023-04-23T00:38:23.769Z,100808.63
2023-04-23T00:40:50.303Z,100809.72
2023-04-23T00:43:17.678Z,100802.56
2023-04-23T00:45:44.474Z,100803.69
2023-04-23T00:48:12.254Z,100799.91
2023-04-23T00:50:38.826Z,100793.19
2023-04-23T00:53:05.670Z,100789.06
2023-04-23T00:55:32.997Z,100792.44
2023-04-23T00:57:59.519Z,100787.09
2023-04-23T01:00:26.265Z,100786.78
2023-04-23T01:02:53.498Z,100787.16
2023-04-23T01:05:23.301Z,100788.66
2023-04-23T01:07:49.964Z,100776.59
2023-04-23T01:10:17.307Z,100776.59
2023-04-23T01:12:43.784Z,100771.75
2023-04-23T01:15:10.582Z,100765.38
2023-04-23T01:17:37.232Z,100768.34
2023-04-23T01:20:06.313Z,100764.97
2023-04-23T01:22:36.035Z,100760.84
2023-04-23T01:25:04.079Z,100752.16
2023-04-23T01:27:30.891Z,100749.53
2023-04-23T01:29:58.233Z,100743.09
2023-04-23T01:32:25.076Z,100751.03
2023-04-23T01:34:54.080Z,100749.88
2023-04-23T01:37:21.159Z,100751.34
2023-04-23T01:39:47.606Z,100746.06
2023-04-23T01:42:14.129Z,100744.19
2023-04-23T01:44:41.003Z,100745.34
2023-04-23T01:47:08.000Z,100739.66
2023-04-23T01:49:34.501Z,100740.06
2023-04-23T01:52:00.905Z,100743.84
2023-04-23T01:54:27.394Z,100737.44
2023-04-23T01:56:55.197Z,100729.91
2023-04-23T01:59:22.904Z,100729.91
2023-04-23T02:01:50.021Z,100737.84
2023-04-23T02:04:18.030Z,100739.66
2023-04-23T02:06:47.461Z,100739.31
2023-04-23T02:09:13.975Z,100735.53
2023-04-23T02:11:40.443Z,100734.38
2023-04-23T02:14:07.328Z,100729.91
2023-04-23T02:16:34.677Z,100725.78
2023-04-23T02:19:01.926Z,100719.34
2023-04-23T02:21:28.754Z,100725.78
2023-04-23T02:23:55.422Z,100724.63
2023-04-23T02:26:22.929Z,100716.31
2023-04-23T02:28:49.569Z,100718.22
2023-04-23T02:31:16.659Z,100716.31
2023-04-23T02:33:43.371Z,100711.75
2023-04-23T02:36:11.736Z,100714.06
2023-04-23T02:38:41.486Z,100715.22
2023-04-23T02:41:08.328Z,100716.34
2023-04-23T02:43:34.845Z,100712.22
2023-04-23T02:46:07.973Z,100705.41
2023-04-23T02:48:39.821Z,100709.53
2023-04-23T02:51:07.546Z,100706.94
2023-04-23T02:53:34.066Z,100708.09
2023-04-23T02:56:01.576Z,100714.88
2023-04-23T02:58:27.990Z,100707.31
2023-04-23T03:00:54.760Z,100712.97
2023-04-23T03:03:21.677Z,100708.84
2023-04-23T03:05:48.283Z,100706.56
2023-04-23T03:08:14.745Z,100711.81
2023-04-23T03:10:41.170Z,100722.38
2023-04-23T03:13:07.631Z,100719.41
2023-04-23T03:15:34.197Z,100723.13
2023-04-23T03:18:01.431Z,100715.22
2023-04-23T03:20:28.258Z,100706.91
2023-04-23T03:22:54.677Z,100711.75
2023-04-23T03:25:22.428Z,100705.41
2023-04-23T03:27:48.877Z,100703.50
2023-04-23T03:30:15.323Z,100703.50
2023-04-23T03:32:41.759Z,100695.59
2023-04-23T03:35:09.659Z,100697.84
2023-04-23T03:37:36.141Z,100695.19
2023-04-23T03:40:08.326Z,100698.28
2023-04-23T03:42:35.672Z,100696.75
2023-04-23T03:45:02.096Z,100695.59
2023-04-23T03:47:28.542Z,100695.25
2023-04-23T03:49:55.174Z,100700.53
2023-04-23T03:52:21.573Z,100693.75
2023-04-23T03:54:47.990Z,100689.63
2023-04-23T03:57:14.584Z,100692.25
2023-04-23T03:59:41.001Z,100694.50
2023-04-23T04:02:07.513Z,100687.72
2023-04-23T04:04:34.360Z,100691.84
2023-04-23T04:07:01.002Z,100688.47
2023-04-23T04:09:27.940Z,100692.25
2023-04-23T04:11:55.045Z,100684.34
2023-04-23T04:14:22.175Z,100683.97
2023-04-23T04:16:49.372Z,100683.59
2023-04-23T04:19:16.291Z,100688.94
2023-04-23T04:21:42.815Z,100686.63
2023-04-23T04:24:11.523Z,100685.16
2023-04-23T04:26:38.062Z,100683.22
2023-04-23T04:29:04.659Z,100683.22
2023-04-23T04:31:32.358Z,100687.03
2023-04-23T04:33:58.975Z,100685.09
2023-04-23T04:36:27.212Z,100700.16
2023-04-23T04:38:56.089Z,100696.78
2023-04-23T04:41:25.489Z,100691.56
2023-04-23T04:43:52.282Z,100689.31
2023-04-23T04:46:21.409Z,100686.63
2023-04-23T04:48:48.331Z,100699.81
2023-04-23T04:51:15.015Z,100699.81
2023-04-23T04:53:41.457Z,100696.84
2023-04-23T04:56:08.424Z,100697.53
2023-04-23T04:58:34.933Z,100702.81
2023-04-23T05:01:01.496Z,100699.78
2023-04-23T05:03:28.226Z,100700.53
2023-04-23T05:05:58.963Z,100697.88
2023-04-23T05:08:25.539Z,100690.75
2023-04-23T05:10:52.136Z,100689.97
2023-04-23T05:13:18.648Z,100686.97
2023-04-23T05:15:46.282Z,100681.34
2023-04-23T05:18:12.686Z,100686.63
2023-04-23T05:20:39.335Z,100691.91
2023-04-23T05:23:06.089Z,100691.56
2023-04-23T05:25:34.470Z,100692.31
2023-04-23T05:28:01.060Z,100691.16
2023-04-23T05:30:27.578Z,100686.22
2023-04-23T05:32:54.049Z,100694.53
2023-04-23T05:35:20.683Z,100694.97
2023-04-23T05:37:47.088Z,100691.56
2023-04-23T05:40:13.587Z,100689.63
2023-04-23T05:42:40.028Z,100696.38
2023-04-23T05:45:08.757Z,100698.28
2023-04-23T05:47:35.635Z,100689.25
2023-04-23T05:50:02.684Z,100694.88
2023-04-23T05:52:31.513Z,100701.28
2023-04-23T05:54:57.931Z,100694.09
2023-04-23T05:57:24.367Z,100697.88
2023-04-23T05:59:51.146Z,100692.97
2023-04-23T06:02:17.700Z,100686.94
2023-04-23T06:04:44.536Z,100689.97
2023-04-23T06:07:12.497Z,100688.06
2023-04-23T06:09:38.937Z,100685.44
2023-04-23T06:12:06.069Z,100673.34
2023-04-23T06:14:32.491Z,100674.81
2023-04-23T06:16:58.950Z,100678.19
2023-04-23T06:19:26.854Z,100671.78
2023-04-23T06:21:54.076Z,100678.88
2023-04-23T06:24:20.624Z,100672.53
2023-04-23T06:26:47.046Z,100668.00
2023-04-23T06:29:13.474Z,100673.94
2023-04-23T06:31:41.599Z,100669.06
2023-04-23T06:34:08.183Z,100662.66
2023-04-23T06:36:35.778Z,100661.53
2023-04-23T06:39:02.249Z,100659.22
2023-04-23T06:41:28.842Z,100656.91
2023-04-23T06:43:55.356Z,100654.59
2023-04-23T06:46:21.852Z,100653.13
2023-04-23T06:48:48.358Z,100649.31
2023-04-23T06:51:16.011Z,100654.22
2023-04-23T06:53:42.658Z,100649.69
2023-04-23T06:56:09.178Z,100647.78
2023-04-23T06:58:35.605Z,100648.88
2023-04-23T07:01:05.173Z,100641.38
2023-04-23T07:03:31.983Z,100638.72
2023-04-23T07:05:58.407Z,100642.50
2023-04-23T07:08:24.957Z,100644.75
2023-04-23T07:10:51.840Z,100634.53
2023-04-23T07:13:18.268Z,100645.84
2023-04-23T07:15:44.855Z,100643.56
2023-04-23T07:18:11.329Z,100642.81
2023-04-23T07:20:37.811Z,100636.84
2023-04-23T07:23:04.889Z,100639.81
2023-04-23T07:25:31.420Z,100642.84
2023-04-23T07:27:58.117Z,100642.47
2023-04-23T07:30:26.615Z,100639.81
2023-04-23T07:32:53.841Z,100636.03
2023-04-23T07:35:20.737Z,100638.69
2023-04-23T07:37:47.357Z,100636.84
2023-04-23T07:40:13.789Z,100632.69
2023-04-23T07:42:40.343Z,100634.19
2023-04-23T07:45:07.300Z,100634.53
2023-04-23T07:47:33.806Z,100630.75
2023-04-23T07:50:00.326Z,100624.72
2023-04-23T07:52:26.788Z,100629.25
2023-04-23T07:54:53.218Z,100632.56
2023-04-23T07:57:19.661Z,100636.34
2023-04-23T07:59:46.110Z,100627.72
2023-04-23T08:02:12.659Z,100625.78
2023-04-23T08:04:39.339Z,100628.78
2023-04-23T08:07:05.915Z,100629.19
2023-04-23T08:09:32.333Z,100622.75
2023-04-23T08:11:58.846Z,100621.69
2023-04-23T08:14:25.404Z,100624.66
2023-04-23T08:16:51.826Z,100615.97
2023-04-23T08:19:18.229Z,100612.28
2023-04-23T08:21:44.801Z,100615.66
2023-04-23T08:24:11.233Z,100615.97
2023-04-23T08:26:37.773Z,100607.38
2023-04-23T08:29:05.299Z,100611.88
2023-04-23T08:31:31.833Z,100611.13
2023-04-23T08:33:58.310Z,100615.59
2023-04-23T08:36:25.589Z,100620.88
2023-04-23T08:38:52.072Z,100615.22
2023-04-23T08:41:21.596Z,100616.72
2023-04-23T08:43:52.903Z,100612.13
2023-04-23T08:46:19.619Z,100609.47
2023-04-23T08:48:47.524Z,100605.41
2023-04-23T08:51:18.859Z,100603.88
2023-04-23T08:53:47.865Z,100607.22
2023-04-23T08:56:14.899Z,100607.22
2023-04-23T08:58:42.127Z,100605.31
2023-04-23T09:01:09.180Z,100602.69
2023-04-23T09:03:36.404Z,100605.31
2023-04-23T09:06:02.953Z,100602.69
2023-04-23T09:08:29.992Z,100603.84
2023-04-23T09:11:01.117Z,100607.22
2023-04-23T09:13:28.182Z,100609.13
2023-04-23T09:15:54.590Z,100606.53
2023-04-23T09:18:21.304Z,100602.03
2023-04-23T09:20:47.739Z,100603.88
2023-04-23T09:23:15.348Z,100598.91
2023-04-23T09:25:42.263Z,100596.66
2023-04-23T09:28:10.867Z,100598.16
2023-04-23T09:30:44.053Z,100595.50
2023-04-23T09:33:13.781Z,100586.84
2023-04-23T09:35:43.127Z,100589.84
2023-04-23T09:38:10.653Z,100588.34
2023-04-23T09:40:37.963Z,100587.59
2023-04-23T09:43:05.633Z,100585.41
2023-04-23T09:45:32.943Z,100582.75
2023-04-23T09:47:59.739Z,100589.84
2023-04-23T09:50:40.261Z,100594.00
2023-04-23T09:53:09.252Z,100581.88
2023-04-23T09:55:39.187Z,100578.53
2023-04-23T09:58:07.331Z,100574.84
2023-04-23T10:00:38.542Z,100574.84
2023-04-23T10:03:07.322Z,100581.94
2023-04-23T10:08:13.288Z,100574.69
2023-04-23T10:10:51.383Z,100563.00
2023-04-23T10:13:27.421Z,100575.72
2023-04-23T10:15:54.993Z,100569.34
2023-04-23T10:18:21.655Z,100571.91
2023-04-23T10:20:50.004Z,100567.75
2023-04-23T10:23:18.572Z,100563.94
2023-04-23T10:25:46.695Z,100569.16
2023-04-23T10:28:17.146Z,100563.53
2023-04-23T10:30:44.498Z,100565.75
2023-04-23T10:33:22.447Z,100560.06
2023-04-23T10:35:56.724Z,100553.97
2023-04-23T10:38:24.092Z,100558.88
2023-04-23T10:40:52.105Z,100557.69
2023-04-23T10:43:19.278Z,100550.13
2023-04-23T10:45:45.725Z,100549.38
2023-04-23T10:48:12.189Z,100546.72
2023-04-23T10:50:47.756Z,100531.63
2023-04-23T10:53:25.511Z,100534.94
2023-04-23T10:56:07.900Z,100536.00
2023-04-23T10:58:48.925Z,100532.22
2023-04-23T11:01:17.308Z,100529.94
2023-04-23T11:03:44.765Z,100526.13
2023-04-23T11:06:20.552Z,100529.09
2023-04-23T11:08:54.369Z,100515.88
2023-04-23T11:11:39.918Z,100515.88
2023-04-23T11:14:15.658Z,100509.78
2023-04-23T11:16:42.307Z,100505.97
2023-04-23T11:19:13.232Z,100504.09
2023-04-23T11:22:02.678Z,100499.19
2023-04-23T11:24:43.250Z,100500.31
2023-04-23T11:27:17.340Z,100499.88
2023-04-23T11:29:45.980Z,100490.81
2023-04-23T11:32:17.430Z,100495.69
2023-04-23T11:34:45.358Z,100485.84
2023-04-23T11:37:14.551Z,100481.19
2023-04-23T11:39:42.251Z,100471.06
2023-04-23T11:42:14.139Z,100469.56
2023-04-23T11:44:41.714Z,100461.25
2023-04-23T11:47:11.296Z,100461.25
2023-04-23T11:49:43.404Z,100449.19
2023-04-23T11:52:11.034Z,100451.41
2023-04-23T11:54:40.612Z,100453.31
2023-04-23T11:57:07.080Z,100441.56
2023-04-23T11:59:33.573Z,100437.47
2023-04-23T12:02:00.712Z,100426.88
2023-04-23T12:04:29.461Z,100428.97
2023-04-23T12:06:57.816Z,100429.69
2023-04-23T12:11:53.159Z,100423.69
2023-04-23T12:14:28.494Z,100424.56
2023-04-23T12:16:56.002Z,100412.34
2023-04-23T12:19:31.165Z,100422.84
2023-04-23T12:22:02.601Z,100426.06
2023-04-23T12:24:31.467Z,100415.00
2023-04-23T12:27:02.978Z,100414.16
2023-04-23T12:29:31.024Z,100412.59
2023-04-23T12:32:00.743Z,100406.16
2023-04-23T12:34:27.281Z,100395.09
2023-04-23T12:36:57.619Z,100399.44
2023-04-23T12:39:36.289Z,100394.06
2023-04-23T12:42:08.114Z,100387.31
2023-04-23T12:44:36.316Z,100383.50
2023-04-23T12:47:07.180Z,100380.47
2023-04-23T12:49:35.968Z,100385.00
2023-04-23T12:52:04.358Z,100368.41
2023-04-23T12:54:37.480Z,100374.03
2023-04-23T12:57:05.622Z,100370.22
2023-04-23T12:59:32.564Z,100368.34
2023-04-23T13:02:03.612Z,100363.75
2023-04-23T13:04:32.573Z,100358.47
2023-04-23T13:06:59.053Z,100351.72
2023-04-23T13:09:27.811Z,100346.44
2023-04-23T13:11:54.962Z,100336.28
2023-04-23T13:14:21.665Z,100330.25
2023-04-23T13:16:48.963Z,100329.84
2023-04-23T13:19:17.325Z,100321.16
2023-04-23T13:21:44.311Z,100322.66
2023-04-23T13:24:10.940Z,100315.13
2023-04-23T13:26:37.581Z,100320.50
2023-04-23T13:29:04.139Z,100316.28
2023-04-23T13:31:31.417Z,100320.06
2023-04-23T13:33:58.251Z,100313.31
2023-04-23T13:36:25.600Z,100321.97
2023-04-23T13:38:52.106Z,100311.06
2023-04-23T13:41:18.548Z,100309.19
2023-04-23T13:43:45.074Z,100303.47
2023-04-23T13:46:11.870Z,100303.47
2023-04-23T13:48:38.421Z,100295.56
2023-04-23T13:51:09.078Z,100289.84
2023-04-23T13:53:43.872Z,100291.75
2023-04-23T13:56:10.617Z,100289.84
2023-04-23T13:58:37.136Z,100283.41
2023-04-23T14:01:04.596Z,100275.81
2023-04-23T14:03:31.208Z,100280.38
2023-04-23T14:05:58.646Z,100273.59
2023-04-23T14:08:25.353Z,100268.72
2023-04-23T14:10:52.096Z,100260.03
2023-04-23T14:13:18.636Z,100258.53
2023-04-23T14:15:45.175Z,100254.75
2023-04-23T14:18:11.638Z,100245.34
2023-04-23T14:20:38.134Z,100245.75
2023-04-23T14:23:24.011Z,100236.34
2023-04-23T14:25:58.782Z,100233.38
2023-04-23T14:28:45.996Z,100239.81
2023-04-23T14:31:12.606Z,100232.31
2023-04-23T14:33:39.041Z,100226.28
2023-04-23T14:36:05.852Z,100227.75
2023-04-23T14:38:32.306Z,100230.09
2023-04-23T14:40:58.758Z,100234.66
2023-04-23T14:43:25.220Z,100239.56
2023-04-23T14:45:52.048Z,100237.03
2023-04-23T14:48:18.623Z,100240.84
2023-04-23T14:50:46.442Z,100260.06
2023-04-23T14:53:12.849Z,100269.16
2023-04-23T14:55:42.774Z,100275.19
2023-04-23T14:58:09.297Z,100283.09
2023-04-23T15:00:35.852Z,100290.94
2023-04-23T15:03:02.854Z,100291.69
2023-04-23T15:05:29.516Z,100295.50
2023-04-23T15:07:56.265Z,100306.06
2023-04-23T15:10:23.506Z,100304.25
2023-04-23T15:13:02.072Z,100304.69
2023-04-23T15:15:45.321Z,100300.56
2023-04-23T15:18:13.996Z,100291.88
2023-04-23T15:20:40.901Z,100289.97
2023-04-23T15:23:07.417Z,100300.22
2023-04-23T15:25:34.787Z,100285.09
2023-04-23T15:28:01.867Z,100294.22
2023-04-23T15:30:28.545Z,100292.69
2023-04-23T15:32:55.798Z,100289.66
2023-04-23T15:35:23.534Z,100286.34
2023-04-23T15:37:50.759Z,100290.88
2023-04-23T15:40:17.641Z,100307.56
2023-04-23T15:42:48.039Z,100295.50
2023-04-23T15:45:14.498Z,100289.50
2023-04-23T15:47:42.180Z,100292.16
2023-04-23T15:50:10.009Z,100284.94
2023-04-23T15:52:37.342Z,100272.94
2023-04-23T15:55:04.853Z,100281.59
2023-04-23T15:57:31.931Z,100276.72
2023-04-23T15:59:58.651Z,100278.63
2023-04-23T16:02:25.349Z,100275.13
2023-04-23T16:04:52.003Z,100276.31
2023-04-23T16:07:18.619Z,100268.03
2023-04-23T16:09:45.299Z,100270.53
2023-04-23T16:12:12.668Z,100269.09
2023-04-23T16:14:40.068Z,100266.72
2023-04-23T16:17:06.592Z,100264.00
2023-04-23T16:19:33.114Z,100249.63
2023-04-23T16:21:59.647Z,100245.84
2023-04-23T16:24:26.104Z,100235.97
2023-04-23T16:26:52.540Z,100231.06
2023-04-23T16:29:22.541Z,100225.69
2023-04-23T16:31:49.868Z,100217.34
2023-04-23T16:34:16.654Z,100207.94
2023-04-23T16:36:43.369Z,100208.91
2023-04-23T16:39:09.931Z,100206.91
2023-04-23T16:41:36.414Z,100197.66
2023-04-23T16:44:02.840Z,100192.38
2023-04-23T16:46:31.009Z,100184.81
2023-04-23T16:48:57.932Z,100178.72
2023-04-23T16:51:24.708Z,100165.06
2023-04-23T16:53:51.203Z,100160.41
2023-04-23T16:56:17.618Z,100140.53
2023-04-23T16:58:44.089Z,100132.81
2023-04-23T17:01:11.013Z,100132.09
2023-04-23T17:03:38.983Z,100117.38
2023-04-23T17:06:20.072Z,100102.81
2023-04-23T17:08:46.508Z,100100.91
2023-04-23T17:11:13.138Z,100094.47
2023-04-23T17:13:39.572Z,100083.56
2023-04-23T17:16:06.209Z,100082.91
2023-04-23T17:18:32.661Z,100084.81
2023-04-23T17:20:59.167Z,100066.31
2023-04-23T17:23:25.775Z,100064.03
2023-04-23T17:25:52.381Z,100056.84
2023-04-23T17:28:20.209Z,100058.63
2023-04-23T17:30:50.354Z,100056.63
2023-04-23T17:33:20.856Z,100045.91
2023-04-23T17:35:51.899Z,100044.34
2023-04-23T17:38:21.306Z,100040.13
2023-04-23T17:40:49.443Z,100037.50
2023-04-23T17:43:16.699Z,100037.50
2023-04-23T17:45:43.313Z,100028.72
2023-04-23T17:48:09.841Z,100023.13
2023-04-23T17:50:36.394Z,100026.50
2023-04-23T17:53:03.754Z,100015.63
2023-04-23T17:55:32.837Z,100008.44
2023-04-23T17:58:05.486Z,100007.56
2023-04-23T18:00:44.213Z,100006.84
2023-04-23T18:03:14.627Z,100009.06
2023-04-23T18:05:41.266Z,99991.00
2023-04-23T18:08:08.236Z,99996.72
2023-04-23T18:10:34.885Z,99990.25
2023-04-23T18:13:06.430Z,99980.84
2023-04-23T18:15:32.898Z,99979.69
2023-04-23T18:17:59.459Z,99972.94
2023-04-23T18:20:26.605Z,99964.69
2023-04-23T18:22:54.347Z,99964.69
2023-04-23T18:25:20.932Z,99953.03
2023-04-23T18:27:47.634Z,99957.91
2023-04-23T18:30:15.381Z,99954.53
2023-04-23T18:32:46.590Z,99957.72
2023-04-23T18:35:13.039Z,99969.00
2023-04-23T18:37:43.947Z,99945.84
2023-04-23T18:40:11.488Z,99942.38
2023-04-23T18:42:38.358Z,99947.34
2023-04-23T18:45:05.448Z,99942.47
2023-04-23T18:47:36.813Z,99950.63
2023-04-23T18:50:09.229Z,99942.59
2023-04-23T18:52:36.363Z,99939.00
2023-04-23T18:55:03.184Z,99931.06
2023-04-23T18:57:29.628Z,99933.81
2023-04-23T18:59:56.042Z,99926.63
2023-04-23T19:02:34.482Z,99925.03
2023-04-23T19:05:02.266Z,99918.59
2023-04-23T19:07:28.738Z,99914.47
2023-04-23T19:09:55.155Z,99914.16
2023-04-23T19:12:21.587Z,99920.19
2023-04-23T19:14:47.977Z,99915.03
2023-04-23T19:17:16.255Z,99915.13
2023-04-23T19:19:43.939Z,99912.69
2023-04-23T19:22:10.652Z,99903.59
2023-04-23T19:24:37.072Z,99899.47
2023-04-23T19:27:03.634Z,99903.59
2023-04-23T19:29:30.058Z,99907.28
2023-04-23T19:31:56.527Z,99905.84
2023-04-23T19:34:23.007Z,99898.72
2023-04-23T19:36:49.487Z,99901.06
2023-04-23T19:39:15.948Z,99904.13
2023-04-23T19:41:42.480Z,99897.69
2023-04-23T19:44:08.892Z,99891.97
2023-04-23T19:46:35.361Z,99886.69
2023-04-23T19:49:02.045Z,99889.75
2023-04-23T19:51:32.597Z,99887.00
2023-04-23T19:53:59.099Z,99882.47
2023-04-23T19:56:25.534Z,99874.94
2023-04-23T19:58:52.051Z,99878.03
2023-04-23T20:01:19.315Z,99890.19
2023-04-23T20:03:48.103Z,99873.03
2023-04-23T20:06:14.772Z,99869.25
2023-04-23T20:09:03.835Z,99865.44
2023-04-23T20:11:30.643Z,99863.22
2023-04-23T20:13:57.077Z,99862.81
2023-04-23T20:16:24.038Z,99861.31
2023-04-23T20:18:50.585Z,99861.31
2023-04-23T20:21:17.122Z,99859.00
2023-04-23T20:23:43.611Z,99857.19
2023-04-23T20:26:10.061Z,99854.88
2023-04-23T20:28:37.539Z,99850.44
2023-04-23T20:31:04.226Z,99849.69
2023-04-23T20:33:31.073Z,99843.25
2023-04-23T20:35:58.802Z,99842.97
2023-04-23T20:38:30.655Z,99842.50
2023-04-23T20:41:02.327Z,99835.44
2023-04-23T20:43:29.658Z,99831.94
2023-04-23T20:45:56.733Z,99827.53
2023-04-23T20:48:25.724Z,99824.16
2023-04-23T20:50:52.473Z,99830.59
2023-04-23T20:53:18.884Z,99830.91
2023-04-23T20:55:45.429Z,99828.56
2023-04-23T20:58:11.937Z,99832.38
2023-04-23T21:00:38.486Z,99830.16
2023-04-23T21:03:06.113Z,99826.38
2023-04-23T21:05:32.696Z,99824.88
2023-04-23T21:07:59.292Z,99820.03
2023-04-23T21:10:25.754Z,99815.47
2023-04-23T21:12:52.403Z,99815.19
2023-04-23T21:15:18.961Z,99815.94
2023-04-23T21:17:45.609Z,99809.47
2023-04-23T21:20:12.104Z,99808.75
2023-04-23T21:22:38.591Z,99807.25
2023-04-23T21:25:05.354Z,99808.75
2023-04-23T21:27:32.057Z,99809.16
2023-04-23T21:30:04.590Z,99804.63
2023-04-23T21:32:31.167Z,99806.53
2023-04-23T21:34:57.603Z,99804.28
2023-04-23T21:37:24.011Z,99808.81
2023-04-23T21:39:50.523Z,99811.81
2023-04-23T21:42:16.963Z,99815.59
2023-04-23T21:44:43.485Z,99810.31
2023-04-23T21:47:09.961Z,99811.06
2023-04-23T21:49:37.110Z,99812.19
2023-04-23T21:52:03.548Z,99810.72
2023-04-23T21:54:30.007Z,99806.53
2023-04-23T21:56:56.502Z,99813.72
2023-04-23T21:59:24.376Z,99808.75
2023-04-23T22:01:50.901Z,99822.38
2023-04-23T22:04:18.568Z,99823.53
2023-04-23T22:06:46.489Z,99819.00
2023-04-23T22:09:14.146Z,99818.63
2023-04-23T22:11:44.235Z,99811.91
2023-04-23T22:14:15.502Z,99811.91
2023-04-23T22:16:41.980Z,99814.53
2023-04-23T22:19:08.473Z,99812.66
2023-04-23T22:21:34.904Z,99817.19
2023-04-23T22:24:03.625Z,99820.25
2023-04-23T22:26:30.190Z,99814.66
2023-04-23T22:28:56.640Z,99812.75
2023-04-23T22:31:23.072Z,99821.13
2023-04-23T22:33:49.491Z,99829.78
2023-04-23T22:36:16.938Z,99828.59
2023-04-23T22:38:43.405Z,99838.44
2023-04-23T22:41:09.909Z,99827.13
2023-04-23T22:43:36.505Z,99827.25
2023-04-23T22:46:02.959Z,99845.63
2023-04-23T22:48:30.821Z,99838.13
2023-04-23T22:50:57.593Z,99853.31
2023-04-23T22:53:24.021Z,99857.75
2023-04-23T22:55:50.657Z,99848.38
2023-04-23T22:58:17.122Z,99861.47
2023-04-23T23:00:43.557Z,99855.13
2023-04-23T23:03:10.153Z,99874.34
2023-04-23T23:05:36.700Z,99874.06
2023-04-23T23:08:03.126Z,99873.31
2023-04-23T23:10:29.873Z,99885.38
2023-04-23T23:12:56.323Z,99887.56
2023-04-23T23:15:22.838Z,99889.91
2023-04-23T23:17:49.341Z,99889.03
2023-04-23T23:20:16.369Z,99892.84
2023-04-23T23:22:43.656Z,99897.09
2023-04-23T23:25:10.253Z,99901.91
2023-04-23T23:27:36.729Z,99895.19
2023-04-23T23:30:05.980Z,99899.72
2023-04-23T23:32:33.266Z,99899.28
2023-04-23T23:35:00.320Z,99908.69
2023-04-23T23:37:27.037Z,99902.66
2023-04-23T23:39:53.535Z,99913.22
2023-04-23T23:42:19.958Z,99906.50
2023-04-23T23:44:46.384Z,99908.03
2023-04-23T23:47:13.028Z,99906.13
2023-04-23T23:49:40.598Z,99913.31
2023-04-23T23:52:07.275Z,99919.34
2023-04-23T23:54:33.697Z,99917.13
2023-04-23T23:57:01.407Z,99918.59
2023-04-23T23:59:28.020Z,99913.03
